createdAt,value
2018-02-13T00:00:52.868Z,101202.29
2018-02-13T00:03:21.328Z,101197.67
2018-02-13T00:05:48.943Z,101198.81
2018-02-13T00:08:17.521Z,101201.00
2018-02-13T00:10:45.910Z,101201.95
2018-02-13T00:13:14.297Z,101206.61
2018-02-13T00:15:42.673Z,101201.30
2018-02-13T00:18:11.207Z,101208.05
2018-02-13T00:20:39.628Z,101207.53
2018-02-13T00:23:07.211Z,101206.79
2018-02-13T00:25:34.795Z,101208.17
2018-02-13T00:28:02.419Z,101206.03
2018-02-13T00:30:30.036Z,101206.59
2018-02-13T00:32:57.681Z,101204.26
2018-02-13T00:35:25.326Z,101208.36
2018-02-13T00:37:53.828Z,101207.55
2018-02-13T00:40:21.449Z,101209.64
2018-02-13T00:42:49.066Z,101208.97
2018-02-13T00:45:16.683Z,101207.98
2018-02-13T00:47:45.082Z,101210.69
2018-02-13T00:50:12.737Z,101211.02
2018-02-13T00:52:40.362Z,101206.36
2018-02-13T00:55:07.947Z,101207.22
2018-02-13T00:57:36.276Z,101204.74
2018-02-13T01:00:03.863Z,101208.41
2018-02-13T01:02:31.447Z,101208.77
2018-02-13T01:04:59.039Z,101209.81
2018-02-13T01:07:26.632Z,101209.71
2018-02-13T01:09:54.743Z,101208.48
2018-02-13T01:12:22.331Z,101208.48
2018-02-13T01:14:50.901Z,101208.48
2018-02-13T01:17:19.196Z,101206.05
2018-02-13T01:19:46.822Z,101206.44
2018-02-13T01:22:14.407Z,101209.35
2018-02-13T01:24:41.982Z,101199.03
2018-02-13T01:27:10.273Z,101207.88
2018-02-13T01:29:38.565Z,101206.50
2018-02-13T01:32:06.982Z,101209.74
2018-02-13T01:34:34.576Z,101211.73
2018-02-13T01:37:02.166Z,101206.87
2018-02-13T01:39:29.767Z,101209.59
2018-02-13T01:41:57.353Z,101218.34
2018-02-13T01:44:25.726Z,101216.40
2018-02-13T01:46:53.311Z,101212.83
2018-02-13T01:49:20.894Z,101216.34
2018-02-13T01:51:48.478Z,101217.38
2018-02-13T01:54:16.159Z,101212.51
2018-02-13T01:56:43.743Z,101208.98
2018-02-13T01:59:11.339Z,101214.55
2018-02-13T02:01:38.932Z,101214.94
2018-02-13T02:04:06.519Z,101214.19
2018-02-13T02:06:34.105Z,101215.56
2018-02-13T02:09:01.738Z,101215.63
2018-02-13T02:11:29.382Z,101214.70
2018-02-13T02:13:56.960Z,101216.37
2018-02-13T02:16:25.482Z,101211.28
2018-02-13T02:18:53.860Z,101214.55
2018-02-13T02:21:22.182Z,101213.37
2018-02-13T02:23:51.181Z,101214.39
2018-02-13T02:26:18.775Z,101219.20
2018-02-13T02:28:46.423Z,101212.45
2018-02-13T02:31:14.851Z,101218.38
2018-02-13T02:33:42.468Z,101216.97
2018-02-13T02:36:10.099Z,101219.16
2018-02-13T02:38:37.691Z,101228.20
2018-02-13T02:41:05.289Z,101226.97
2018-02-13T02:43:32.882Z,101225.48
2018-02-13T02:46:00.476Z,101223.95
2018-02-13T02:48:28.079Z,101228.12
2018-02-13T02:50:56.285Z,101224.08
2018-02-13T02:53:23.965Z,101223.70
2018-02-13T02:55:51.565Z,101216.64
2018-02-13T02:58:19.217Z,101218.83
2018-02-13T03:00:46.824Z,101215.08
2018-02-13T03:03:14.447Z,101213.42
2018-02-13T03:05:42.078Z,101225.95
2018-02-13T03:08:09.671Z,101226.00
2018-02-13T03:10:37.304Z,101221.70
2018-02-13T03:13:04.942Z,101230.77
2018-02-13T03:15:32.541Z,101234.19
2018-02-13T03:18:00.127Z,101235.14
2018-02-13T03:20:27.815Z,101238.19
2018-02-13T03:22:56.251Z,101238.20
2018-02-13T03:25:23.848Z,101242.14
2018-02-13T03:27:51.511Z,101239.47
2018-02-13T03:30:19.144Z,101240.56
2018-02-13T03:32:46.735Z,101241.50
2018-02-13T03:35:14.404Z,101243.36
2018-02-13T03:37:41.996Z,101239.34
2018-02-13T03:40:09.636Z,101242.20
2018-02-13T03:42:37.234Z,101246.81
2018-02-13T03:45:04.876Z,101249.55
2018-02-13T03:47:32.562Z,101248.34
2018-02-13T03:50:00.160Z,101246.27
2018-02-13T03:52:27.790Z,101246.89
2018-02-13T03:54:55.385Z,101244.94
2018-02-13T03:57:23.020Z,101244.75
2018-02-13T03:59:50.671Z,101242.84
2018-02-13T04:02:18.334Z,101246.33
2018-02-13T04:04:45.967Z,101250.27
2018-02-13T04:07:13.597Z,101244.69
2018-02-13T04:09:41.178Z,101241.80
2018-02-13T04:12:08.782Z,101249.61
2018-02-13T04:14:36.414Z,101247.32
2018-02-13T04:17:04.019Z,101245.09
2018-02-13T04:19:31.619Z,101245.52
2018-02-13T04:21:59.332Z,101244.00
2018-02-13T04:24:26.936Z,101250.89
2018-02-13T04:26:54.575Z,101246.41
2018-02-13T04:29:22.174Z,101248.56
2018-02-13T04:31:49.771Z,101251.55
2018-02-13T04:34:17.367Z,101250.97
2018-02-13T04:36:44.963Z,101248.84
2018-02-13T04:39:12.556Z,101247.45
2018-02-13T04:41:40.188Z,101254.48
2018-02-13T04:44:07.823Z,101250.94
2018-02-13T04:46:35.414Z,101246.83
2018-02-13T04:49:03.052Z,101249.95
2018-02-13T04:51:30.638Z,101244.61
2018-02-13T04:53:58.275Z,101241.14
2018-02-13T04:56:25.896Z,101242.50
2018-02-13T04:58:53.527Z,101240.50
2018-02-13T05:01:21.147Z,101243.58
2018-02-13T05:03:48.782Z,101241.55
2018-02-13T05:06:16.380Z,101243.47
2018-02-13T05:08:44.006Z,101239.15
2018-02-13T05:11:11.598Z,101248.30
2018-02-13T05:13:39.227Z,101252.92
2018-02-13T05:16:06.850Z,101255.25
2018-02-13T05:18:34.512Z,101257.89
2018-02-13T05:21:02.915Z,101259.28
2018-02-13T05:23:30.508Z,101252.45
2018-02-13T05:25:58.101Z,101253.34
2018-02-13T05:28:25.763Z,101257.65
2018-02-13T05:30:53.360Z,101254.66
2018-02-13T05:33:20.963Z,101258.67
2018-02-13T05:35:48.571Z,101255.80
2018-02-13T05:38:16.165Z,101255.02
2018-02-13T05:40:43.761Z,101258.47
2018-02-13T05:43:11.354Z,101259.28
2018-02-13T05:45:38.993Z,101253.02
2018-02-13T05:48:07.360Z,101257.80
2018-02-13T05:50:34.954Z,101258.33
2018-02-13T05:53:02.541Z,101257.44
2018-02-13T05:55:30.131Z,101263.31
2018-02-13T05:57:57.719Z,101260.42
2018-02-13T06:00:25.312Z,101262.96
2018-02-13T06:02:52.903Z,101264.70
2018-02-13T06:05:20.588Z,101266.77
2018-02-13T06:07:48.217Z,101266.23
2018-02-13T06:10:15.812Z,101268.94
2018-02-13T06:12:43.395Z,101265.95
2018-02-13T06:15:10.984Z,101274.53
2018-02-13T06:17:38.574Z,101267.34
2018-02-13T06:20:06.202Z,101269.05
2018-02-13T06:22:33.879Z,101268.22
2018-02-13T06:25:01.468Z,101269.47
2018-02-13T06:27:29.063Z,101276.81
2018-02-13T06:29:56.678Z,101271.28
2018-02-13T06:32:24.315Z,101278.59
2018-02-13T06:34:51.903Z,101268.98
2018-02-13T06:37:19.498Z,101283.12
2018-02-13T06:39:47.139Z,101272.79
2018-02-13T06:42:14.955Z,101285.25
2018-02-13T06:44:42.540Z,101281.87
2018-02-13T06:47:10.130Z,101282.23
2018-02-13T06:49:37.719Z,101285.71
2018-02-13T06:52:05.310Z,101286.96
2018-02-13T06:54:32.904Z,101293.34
2018-02-13T06:57:00.500Z,101291.45
2018-02-13T06:59:28.130Z,101293.84
2018-02-13T07:01:55.785Z,101295.05
2018-02-13T07:04:23.377Z,101300.14
2018-02-13T07:06:50.962Z,101303.89
2018-02-13T07:09:18.553Z,101289.71
2018-02-13T07:11:46.143Z,101300.44
2018-02-13T07:14:13.728Z,101299.55
2018-02-13T07:16:41.321Z,101307.28
2018-02-13T07:19:08.913Z,101301.58
2018-02-13T07:21:36.503Z,101301.47
2018-02-13T07:24:04.099Z,101296.84
2018-02-13T07:26:31.683Z,101299.23
2018-02-13T07:28:59.419Z,101299.69
2018-02-13T07:31:27.623Z,101306.53
2018-02-13T07:33:55.217Z,101306.45
2018-02-13T07:36:22.847Z,101306.34
2018-02-13T07:38:50.472Z,101304.20
2018-02-13T07:41:18.059Z,101309.66
2018-02-13T07:43:45.646Z,101306.59
2018-02-13T07:46:13.235Z,101307.05
2018-02-13T07:48:40.922Z,101313.20
2018-02-13T07:51:08.506Z,101314.95
2018-02-13T07:53:36.096Z,101321.72
2018-02-13T07:56:03.707Z,101325.53
2018-02-13T07:58:31.303Z,101322.80
2018-02-13T08:00:58.932Z,101321.70
2018-02-13T08:03:26.631Z,101326.16
2018-02-13T08:05:54.227Z,101332.06
2018-02-13T08:08:21.854Z,101326.33
2018-02-13T08:10:49.448Z,101321.61
2018-02-13T08:13:17.035Z,101324.39
2018-02-13T08:15:44.634Z,101326.10
2018-02-13T08:18:12.229Z,101326.40
2018-02-13T08:20:39.819Z,101328.02
2018-02-13T08:23:07.522Z,101320.63
2018-02-13T08:25:35.116Z,101321.02
2018-02-13T08:28:02.707Z,101324.55
2018-02-13T08:30:30.303Z,101319.22
2018-02-13T08:32:57.894Z,101319.53
2018-02-13T08:35:25.479Z,101321.77
2018-02-13T08:37:53.071Z,101319.89
2018-02-13T08:40:20.959Z,101320.84
2018-02-13T08:42:48.551Z,101318.81
2018-02-13T08:45:16.140Z,101319.25
2018-02-13T08:47:43.846Z,101319.04
2018-02-13T08:50:11.430Z,101319.34
2018-02-13T08:52:39.084Z,101315.97
2018-02-13T08:55:06.671Z,101318.58
2018-02-13T08:57:34.304Z,101318.14
2018-02-13T09:00:01.900Z,101316.88
2018-02-13T09:02:29.504Z,101310.95
2018-02-13T09:04:57.099Z,101317.28
2018-02-13T09:07:24.678Z,101311.01
2018-02-13T09:09:52.263Z,101310.45
2018-02-13T09:12:19.845Z,101308.09
2018-02-13T09:14:47.426Z,101310.22
2018-02-13T09:17:15.011Z,101310.92
2018-02-13T09:19:42.591Z,101312.73
2018-02-13T09:22:10.173Z,101310.22
2018-02-13T09:24:37.791Z,101308.42
2018-02-13T09:27:05.400Z,101308.42
2018-02-13T09:29:32.978Z,101301.30
2018-02-13T09:32:00.561Z,101292.82
2018-02-13T09:34:28.214Z,101292.68
2018-02-13T09:36:55.806Z,101293.03
2018-02-13T09:39:23.378Z,101294.91
2018-02-13T09:41:51.832Z,101285.23
2018-02-13T09:44:19.406Z,101285.06
2018-02-13T09:46:47.038Z,101287.62
2018-02-13T09:49:14.803Z,101284.82
2018-02-13T09:51:42.383Z,101281.34
2018-02-13T09:54:09.959Z,101281.88
2018-02-13T09:56:37.539Z,101282.67
2018-02-13T09:59:05.166Z,101279.37
2018-02-13T10:01:33.533Z,101284.44
2018-02-13T10:04:01.209Z,101283.57
2018-02-13T10:06:28.815Z,101286.16
2018-02-13T10:08:56.434Z,101289.26
2018-02-13T10:11:24.161Z,101285.42
2018-02-13T10:13:51.738Z,101287.95
2018-02-13T10:16:19.370Z,101286.11
2018-02-13T10:18:46.955Z,101280.77
2018-02-13T10:21:14.644Z,101284.99
2018-02-13T10:23:42.291Z,101285.86
2018-02-13T10:26:09.873Z,101288.02
2018-02-13T10:28:37.633Z,101275.14
2018-02-13T10:31:05.215Z,101277.37
2018-02-13T10:33:32.794Z,101275.14
2018-02-13T10:36:01.318Z,101276.63
2018-02-13T10:38:28.904Z,101279.88
2018-02-13T10:40:56.680Z,101276.52
2018-02-13T10:43:24.275Z,101274.84
2018-02-13T10:45:52.299Z,101267.86
2018-02-13T10:48:19.878Z,101270.56
2018-02-13T10:50:47.459Z,101269.32
2018-02-13T10:53:15.075Z,101266.69
2018-02-13T10:55:42.664Z,101262.55
2018-02-13T10:58:10.244Z,101260.89
2018-02-13T11:00:43.486Z,101258.35
2018-02-13T11:03:11.161Z,101258.42
2018-02-13T11:05:38.735Z,101257.97
2018-02-13T11:08:06.310Z,101248.45
2018-02-13T11:10:33.939Z,101250.16
2018-02-13T11:13:01.523Z,101245.41
2018-02-13T11:15:29.112Z,101246.38
2018-02-13T11:17:56.703Z,101240.50
2018-02-13T11:20:24.278Z,101242.77
2018-02-13T11:22:51.862Z,101236.66
2018-02-13T11:25:20.218Z,101233.89
2018-02-13T11:27:47.802Z,101234.34
2018-02-13T11:30:15.411Z,101231.62
2018-02-13T11:32:42.995Z,101226.86
2018-02-13T11:35:10.677Z,101222.80
2018-02-13T11:37:38.255Z,101224.41
2018-02-13T11:40:05.875Z,101226.44
2018-02-13T11:42:33.564Z,101223.02
2018-02-13T11:45:01.150Z,101231.09
2018-02-13T11:47:28.723Z,101224.76
2018-02-13T11:49:56.302Z,101218.35
2018-02-13T11:52:23.876Z,101214.38
2018-02-13T11:54:51.454Z,101209.65
2018-02-13T11:57:19.971Z,101211.42
2018-02-13T11:59:47.550Z,101209.19
2018-02-13T12:02:15.174Z,101198.84
2018-02-13T12:04:42.752Z,101195.94
2018-02-13T12:07:10.326Z,101194.53
2018-02-13T12:09:37.942Z,101202.98
2018-02-13T12:12:05.519Z,101203.11
2018-02-13T12:14:33.103Z,101197.23
2018-02-13T12:17:00.676Z,101194.17
2018-02-13T12:19:28.254Z,101196.23
2018-02-13T12:21:55.837Z,101197.20
2018-02-13T12:24:24.014Z,101193.30
2018-02-13T12:26:51.590Z,101186.95
2018-02-13T12:29:19.174Z,101184.58
2018-02-13T12:31:46.747Z,101177.36
2018-02-13T12:34:14.384Z,101176.45
2018-02-13T12:36:41.994Z,101175.42
2018-02-13T12:39:09.614Z,101175.82
2018-02-13T12:41:37.183Z,101168.56
2018-02-13T12:44:04.755Z,101172.78
2018-02-13T12:46:32.330Z,101168.36
2018-02-13T12:48:59.945Z,101166.66
2018-02-13T12:51:27.557Z,101161.89
2018-02-13T12:53:55.127Z,101163.31
2018-02-13T12:56:22.697Z,101161.80
2018-02-13T12:58:50.279Z,101158.18
2018-02-13T13:01:17.955Z,101155.28
2018-02-13T13:03:45.528Z,101166.86
2018-02-13T13:06:13.102Z,101159.70
2018-02-13T13:08:40.791Z,101156.06
2018-02-13T13:11:08.358Z,101153.95
2018-02-13T13:13:35.932Z,101154.45
2018-02-13T13:16:03.506Z,101152.88
2018-02-13T13:18:31.118Z,101154.81
2018-02-13T13:20:58.713Z,101150.52
2018-02-13T13:23:26.344Z,101147.41
2018-02-13T13:25:54.795Z,101143.81
2018-02-13T13:28:22.464Z,101142.73
2018-02-13T13:30:50.082Z,101145.23
2018-02-13T13:33:17.662Z,101147.02
2018-02-13T13:35:45.278Z,101145.39
2018-02-13T13:38:12.859Z,101134.76
2018-02-13T13:40:40.562Z,101130.41
2018-02-13T13:43:08.231Z,101132.27
2018-02-13T13:45:35.858Z,101134.77
2018-02-13T13:48:03.443Z,101139.19
2018-02-13T13:50:31.029Z,101136.33
2018-02-13T13:52:58.649Z,101136.24
2018-02-13T13:55:26.232Z,101135.58
2018-02-13T13:57:53.874Z,101132.33
2018-02-13T14:00:21.454Z,101136.64
2018-02-13T14:02:49.103Z,101125.56
2018-02-13T14:05:16.684Z,101132.73
2018-02-13T14:07:44.291Z,101134.87
2018-02-13T14:10:11.883Z,101137.58
2018-02-13T14:12:39.475Z,101133.87
2018-02-13T14:15:07.050Z,101135.05
2018-02-13T14:17:34.630Z,101128.24
2018-02-13T14:20:02.211Z,101134.71
2018-02-13T14:22:29.891Z,101136.43
2018-02-13T14:24:57.503Z,101133.34
2018-02-13T14:27:25.076Z,101138.94
2018-02-13T14:29:52.654Z,101139.07
2018-02-13T14:32:20.230Z,101138.27
2018-02-13T14:34:47.803Z,101135.42
2018-02-13T14:37:15.422Z,101126.59
2018-02-13T14:39:43.000Z,101128.16
2018-02-13T14:42:10.582Z,101127.88
2018-02-13T14:44:38.197Z,101126.62
2018-02-13T14:47:05.775Z,101127.34
2018-02-13T14:49:33.407Z,101124.18
2018-02-13T14:52:01.052Z,101134.74
2018-02-13T14:54:28.641Z,101130.78
2018-02-13T14:56:56.244Z,101133.55
2018-02-13T14:59:23.821Z,101137.12
2018-02-13T15:01:51.418Z,101146.22
2018-02-13T15:04:18.995Z,101138.14
2018-02-13T15:06:46.612Z,101146.70
2018-02-13T15:09:14.806Z,101147.73
2018-02-13T15:11:42.436Z,101148.78
2018-02-13T15:14:10.014Z,101146.64
2018-02-13T15:16:37.612Z,101145.94
2018-02-13T15:19:05.217Z,101149.84
2018-02-13T15:21:32.854Z,101145.77
2018-02-13T15:24:00.432Z,101147.46
2018-02-13T15:26:28.050Z,101152.17
2018-02-13T15:28:55.626Z,101152.44
2018-02-13T15:31:23.455Z,101150.48
2018-02-13T15:33:51.053Z,101157.75
2018-02-13T15:36:18.647Z,101156.72
2018-02-13T15:38:46.219Z,101155.83
2018-02-13T15:41:13.790Z,101157.44
2018-02-13T15:43:42.631Z,101159.88
2018-02-13T15:46:10.211Z,101156.56
2018-02-13T15:48:37.855Z,101169.22
2018-02-13T15:51:05.439Z,101170.69
2018-02-13T15:53:33.064Z,101177.31
2018-02-13T15:56:00.718Z,101172.66
2018-02-13T15:58:28.356Z,101171.17
2018-02-13T16:00:55.967Z,101171.33
2018-02-13T16:03:23.543Z,101173.06
2018-02-13T16:05:51.126Z,101174.66
2018-02-13T16:08:18.726Z,101180.05
2018-02-13T16:10:46.299Z,101171.78
2018-02-13T16:13:13.874Z,101178.66
2018-02-13T16:15:41.491Z,101170.60
2018-02-13T16:18:09.058Z,101172.90
2018-02-13T16:20:36.654Z,101171.20
2018-02-13T16:23:04.454Z,101167.87
2018-02-13T16:25:32.032Z,101177.66
2018-02-13T16:27:59.607Z,101172.30
2018-02-13T16:30:27.189Z,101172.44
2018-02-13T16:32:54.767Z,101172.41
2018-02-13T16:35:22.343Z,101169.23
2018-02-13T16:37:49.924Z,101173.48
2018-02-13T16:40:17.649Z,101166.66
2018-02-13T16:42:45.247Z,101180.84
2018-02-13T16:45:12.824Z,101183.14
2018-02-13T16:47:40.485Z,101181.30
2018-02-13T16:50:08.104Z,101179.50
2018-02-13T16:52:35.678Z,101178.06
2018-02-13T16:55:03.296Z,101178.35
2018-02-13T16:57:30.916Z,101174.98
2018-02-13T16:59:58.494Z,101181.75
2018-02-13T17:02:26.114Z,101183.64
2018-02-13T17:04:53.701Z,101185.35
2018-02-13T17:07:21.330Z,101184.61
2018-02-13T17:09:49.835Z,101179.25
2018-02-13T17:12:17.427Z,101183.00
2018-02-13T17:14:45.020Z,101184.45
2018-02-13T17:17:12.607Z,101190.60
2018-02-13T17:19:40.205Z,101184.38
2018-02-13T17:22:07.812Z,101189.63
2018-02-13T17:24:35.407Z,101183.20
2018-02-13T17:27:03.033Z,101186.53
2018-02-13T17:29:30.627Z,101187.02
2018-02-13T17:31:58.227Z,101188.77
2018-02-13T17:34:25.854Z,101184.64
2018-02-13T17:36:53.437Z,101198.03
2018-02-13T17:39:21.028Z,101196.03
2018-02-13T17:41:48.623Z,101191.04
2018-02-13T17:44:16.288Z,101202.75
2018-02-13T17:46:43.885Z,101201.70
2018-02-13T17:49:11.558Z,101203.41
2018-02-13T17:51:39.174Z,101198.23
2018-02-13T17:54:06.823Z,101214.20
2018-02-13T17:56:34.519Z,101208.25
2018-02-13T17:59:02.112Z,101211.39
2018-02-13T18:01:29.712Z,101214.43
2018-02-13T18:03:57.308Z,101216.14
2018-02-13T18:06:24.941Z,101209.73
2018-02-13T18:08:52.530Z,101215.38
2018-02-13T18:11:20.136Z,101215.46
2018-02-13T18:13:47.741Z,101216.27
2018-02-13T18:16:15.330Z,101225.61
2018-02-13T18:18:42.921Z,101217.64
2018-02-13T18:21:10.526Z,101228.00
2018-02-13T18:23:38.220Z,101226.77
2018-02-13T18:26:05.836Z,101226.80
2018-02-13T18:28:33.497Z,101223.03
2018-02-13T18:31:01.138Z,101224.84
2018-02-13T18:33:29.905Z,101231.25
2018-02-13T18:35:57.491Z,101233.86
2018-02-13T18:38:25.118Z,101234.37
2018-02-13T18:40:52.769Z,101236.47
2018-02-13T18:43:20.367Z,101234.29
2018-02-13T18:45:47.959Z,101232.19
2018-02-13T18:48:15.551Z,101232.23
2018-02-13T18:50:43.144Z,101230.56
2018-02-13T18:55:38.279Z,101232.84
2018-02-13T18:58:06.039Z,101227.19
2018-02-13T19:00:33.681Z,101236.09
2018-02-13T19:03:01.274Z,101237.37
2018-02-13T19:05:28.864Z,101233.23
2018-02-13T19:07:56.459Z,101239.77
2018-02-13T19:10:24.048Z,101244.20
2018-02-13T19:12:51.686Z,101238.69
2018-02-13T19:15:19.335Z,101235.81
2018-02-13T19:17:46.922Z,101245.73
2018-02-13T19:20:14.515Z,101244.48
2018-02-13T19:22:42.116Z,101233.75
2018-02-13T19:25:09.708Z,101245.06
2018-02-13T19:27:37.356Z,101251.02
2018-02-13T19:30:04.954Z,101250.63
2018-02-13T19:32:32.687Z,101246.03
2018-02-13T19:35:00.343Z,101252.84
2018-02-13T19:37:27.963Z,101252.84
2018-02-13T19:39:56.030Z,101253.62
2018-02-13T19:42:23.675Z,101254.08
2018-02-13T19:44:51.268Z,101254.16
2018-02-13T19:47:18.894Z,101257.15
2018-02-13T19:49:46.511Z,101259.36
2018-02-13T19:52:14.313Z,101256.58
2018-02-13T19:54:41.947Z,101258.69
2018-02-13T19:57:09.535Z,101255.34
2018-02-13T19:59:37.199Z,101259.97
2018-02-13T20:02:04.792Z,101255.38
2018-02-13T20:04:32.388Z,101252.80
2018-02-13T20:07:00.167Z,101252.34
2018-02-13T20:09:27.799Z,101263.45
2018-02-13T20:11:56.043Z,101262.53
2018-02-13T20:14:23.754Z,101254.02
2018-02-13T20:16:51.652Z,101262.56
2018-02-13T20:19:19.302Z,101267.91
2018-02-13T20:21:46.931Z,101263.85
2018-02-13T20:24:15.383Z,101269.02
2018-02-13T20:26:43.620Z,101270.66
2018-02-13T20:29:11.210Z,101272.17
2018-02-13T20:31:38.843Z,101269.77
2018-02-13T20:34:06.437Z,101267.21
2018-02-13T20:36:34.027Z,101265.93
2018-02-13T20:39:01.611Z,101265.96
2018-02-13T20:41:29.208Z,101267.25
2018-02-13T20:43:57.795Z,101268.13
2018-02-13T20:46:25.391Z,101268.59
2018-02-13T20:48:53.020Z,101269.80
2018-02-13T20:51:20.648Z,101270.30
2018-02-13T20:53:48.234Z,101278.02
2018-02-13T20:56:15.934Z,101276.77
2018-02-13T20:58:43.518Z,101269.51
2018-02-13T21:01:11.209Z,101273.84
2018-02-13T21:03:39.057Z,101284.03
2018-02-13T21:06:06.666Z,101275.52
2018-02-13T21:08:34.259Z,101277.77
2018-02-13T21:11:01.880Z,101286.31
2018-02-13T21:13:29.476Z,101288.02
2018-02-13T21:15:57.147Z,101289.34
2018-02-13T21:18:24.775Z,101286.86
2018-02-13T21:20:52.633Z,101292.84
2018-02-13T21:23:20.355Z,101287.72
2018-02-13T21:25:47.943Z,101291.55
2018-02-13T21:28:15.629Z,101291.61
2018-02-13T21:30:43.251Z,101299.73
2018-02-13T21:33:11.577Z,101283.53
2018-02-13T21:35:39.162Z,101294.31
2018-02-13T21:38:06.795Z,101287.94
2018-02-13T21:40:34.435Z,101299.73
2018-02-13T21:43:02.068Z,101299.01
2018-02-13T21:45:29.655Z,101299.01
2018-02-13T21:47:57.272Z,101298.93
2018-02-13T21:50:24.887Z,101303.59
2018-02-13T21:52:52.474Z,101303.78
2018-02-13T21:55:20.107Z,101303.33
2018-02-13T21:57:47.694Z,101297.88
2018-02-13T22:00:15.282Z,101302.53
2018-02-13T22:02:43.803Z,101303.45
2018-02-13T22:05:11.397Z,101292.18
2018-02-13T22:07:38.991Z,101301.12
2018-02-13T22:10:06.583Z,101300.84
2018-02-13T22:12:34.167Z,101299.89
2018-02-13T22:15:01.868Z,101300.29
2018-02-13T22:17:29.458Z,101298.69
2018-02-13T22:19:57.055Z,101299.64
2018-02-13T22:22:24.642Z,101300.52
2018-02-13T22:24:52.236Z,101300.80
2018-02-13T22:27:19.921Z,101303.46
2018-02-13T22:29:47.498Z,101301.75
2018-02-13T22:32:15.091Z,101305.27
2018-02-13T22:34:42.682Z,101302.33
2018-02-13T22:37:10.270Z,101305.77
2018-02-13T22:39:37.860Z,101307.78
2018-02-13T22:42:05.478Z,101307.00
2018-02-13T22:44:33.142Z,101311.36
2018-02-13T22:47:00.727Z,101313.11
2018-02-13T22:49:28.315Z,101304.98
2018-02-13T22:51:55.910Z,101307.59
2018-02-13T22:54:23.499Z,101311.54
2018-02-13T22:56:51.083Z,101315.37
2018-02-13T22:59:18.724Z,101307.73
2018-02-13T23:01:46.315Z,101314.63
2018-02-13T23:04:13.907Z,101317.15
2018-02-13T23:06:41.491Z,101316.70
2018-02-13T23:09:09.083Z,101319.70
2018-02-13T23:11:36.672Z,101314.88
2018-02-13T23:14:04.266Z,101318.36
2018-02-13T23:16:31.851Z,101322.55
2018-02-13T23:18:59.448Z,101323.40
2018-02-13T23:21:27.039Z,101321.81
2018-02-13T23:23:54.631Z,101323.55
2018-02-13T23:26:22.324Z,101320.98
2018-02-13T23:28:49.915Z,101319.67
2018-02-13T23:31:17.507Z,101321.83
2018-02-13T23:33:45.135Z,101324.83
2018-02-13T23:36:12.772Z,101327.66
2018-02-13T23:38:40.462Z,101327.79
2018-02-13T23:41:08.056Z,101334.64
2018-02-13T23:43:35.642Z,101336.77
2018-02-13T23:46:03.270Z,101335.47
2018-02-13T23:48:30.859Z,101344.36
2018-02-13T23:50:58.443Z,101339.73
2018-02-13T23:53:26.032Z,101340.23
2018-02-13T23:55:53.639Z,101337.27
2018-02-13T23:58:21.227Z,101336.39
